DEYYG EDXR-EDDH
Flight info
| Callsign | DEYYG |
|---|---|
| Flight time | N/A |
| Altitude | 15000 |
| Route | BOGMU BOGMU3P |
| Aircraft | TBM9/L-SDFGRWY/S |
Departure
| Time | N/A |
|---|---|
| Airport | Rendsburg-Schachtholm Airfield (EDXR) |
Arrival
| Time | 2026-05-03 20:25 |
|---|---|
| Airport | Hamburg Helmut Schmidt Airport (EDDH) |
| Time | Latitude | Longitude | Altitude | Speed | Heading |
|---|---|---|---|---|---|
| 2026-05-03 20:15 | 53.91479 | 10.55894 | 4003 ft | 223 kts | 226° |
| 2026-05-03 20:15 | 53.90307 | 10.54072 | 4004 ft | 232 kts | 226° |
| 2026-05-03 20:15 | 53.89277 | 10.51940 | 3998 ft | 236 kts | 232° |
| 2026-05-03 20:15 | 53.88208 | 10.49799 | 3992 ft | 239 kts | 230° |
| 2026-05-03 20:16 | 53.87137 | 10.47699 | 3998 ft | 238 kts | 231° |
| 2026-05-03 20:16 | 53.86067 | 10.45506 | 4001 ft | 239 kts | 231° |
| 2026-05-03 20:16 | 53.85016 | 10.43329 | 3991 ft | 239 kts | 232° |
| 2026-05-03 20:16 | 53.83961 | 10.41158 | 3991 ft | 239 kts | 231° |
| 2026-05-03 20:17 | 53.82902 | 10.39034 | 3983 ft | 239 kts | 231° |
| 2026-05-03 20:17 | 53.81831 | 10.36882 | 3982 ft | 238 kts | 231° |
| 2026-05-03 20:17 | 53.80763 | 10.34735 | 3978 ft | 238 kts | 231° |
| 2026-05-03 20:17 | 53.79804 | 10.32831 | 3970 ft | 190 kts | 230° |
| 2026-05-03 20:18 | 53.79003 | 10.31268 | 3701 ft | 167 kts | 232° |
| 2026-05-03 20:18 | 53.78283 | 10.29821 | 3323 ft | 155 kts | 232° |
| 2026-05-03 20:18 | 53.77612 | 10.28470 | 2994 ft | 146 kts | 232° |
| 2026-05-03 20:18 | 53.77025 | 10.27284 | 2975 ft | 117 kts | 233° |
| 2026-05-03 20:19 | 53.76584 | 10.26380 | 2973 ft | 83 kts | 234° |
| 2026-05-03 20:19 | 53.76208 | 10.25616 | 2968 ft | 88 kts | 233° |
| 2026-05-03 20:19 | 53.75821 | 10.24806 | 2980 ft | 87 kts | 233° |
| 2026-05-03 20:19 | 53.75431 | 10.24015 | 2984 ft | 92 kts | 233° |
| 2026-05-03 20:20 | 53.75000 | 10.23133 | 3000 ft | 100 kts | 233° |
| 2026-05-03 20:20 | 53.74568 | 10.22249 | 2997 ft | 96 kts | 233° |
| 2026-05-03 20:20 | 53.74100 | 10.21299 | 3004 ft | 120 kts | 233° |
| 2026-05-03 20:20 | 53.73523 | 10.20110 | 3012 ft | 147 kts | 232° |
| 2026-05-03 20:21 | 53.72882 | 10.18812 | 2907 ft | 141 kts | 233° |
| 2026-05-03 20:21 | 53.72269 | 10.17555 | 2718 ft | 139 kts | 232° |
| 2026-05-03 20:21 | 53.71641 | 10.16287 | 2534 ft | 138 kts | 233° |
| 2026-05-03 20:21 | 53.71039 | 10.15057 | 2349 ft | 138 kts | 233° |
| 2026-05-03 20:22 | 53.70427 | 10.13810 | 2167 ft | 138 kts | 233° |
| 2026-05-03 20:22 | 53.69807 | 10.12548 | 1976 ft | 141 kts | 233° |
| 2026-05-03 20:22 | 53.69177 | 10.11270 | 1782 ft | 141 kts | 234° |
| 2026-05-03 20:22 | 53.68515 | 10.09930 | 1583 ft | 144 kts | 233° |
| 2026-05-03 20:23 | 53.67877 | 10.08618 | 1394 ft | 146 kts | 233° |
| 2026-05-03 20:23 | 53.67317 | 10.07486 | 1215 ft | 149 kts | 233° |
| 2026-05-03 20:23 | 53.66661 | 10.06166 | 1018 ft | 139 kts | 233° |
| 2026-05-03 20:23 | 53.66116 | 10.05056 | 852 ft | 107 kts | 232° |
| 2026-05-03 20:24 | 53.65666 | 10.04151 | 725 ft | 104 kts | 234° |
| 2026-05-03 20:24 | 53.65208 | 10.03218 | 578 ft | 86 kts | 234° |
| 2026-05-03 20:24 | 53.64864 | 10.02512 | 472 ft | 83 kts | 226° |
| 2026-05-03 20:24 | 53.64438 | 10.01672 | 365 ft | 103 kts | 231° |
| 2026-05-03 20:25 | 53.63948 | 10.00654 | 213 ft | 119 kts | 231° |
| 2026-05-03 20:25 | 53.63405 | 9.99570 | 55 ft | 113 kts | 231° |
| 2026-05-03 20:25 | 53.63057 | 9.98862 | 43 ft | 50 kts | 228° |
| 2026-05-03 20:25 | 53.62834 | 9.98510 | 43 ft | 28 kts | 209° |
| 2026-05-03 20:26 | 53.62710 | 9.98484 | 41 ft | 11 kts | 148° |
| 2026-05-03 20:26 | 53.62707 | 9.98490 | 41 ft | 0 kts | 125° |
| 2026-05-03 20:26 | 53.62700 | 9.98505 | 41 ft | 12 kts | 124° |
| 2026-05-03 20:26 | 53.62722 | 9.98639 | 41 ft | 8 kts | 125° |
| 2026-05-03 20:27 | 53.62683 | 9.98690 | 41 ft | 6 kts | 46° |
| 2026-05-03 20:27 | 53.62698 | 9.98729 | 41 ft | 0 kts | 60° |